createdAt,value
2023-10-08T00:01:07.739Z,10.93
2023-10-08T00:03:37.530Z,13.15
2023-10-08T00:06:14.249Z,10.80
2023-10-08T00:08:42.787Z,11.60
2023-10-08T00:11:12.444Z,9.82
2023-10-08T00:13:42.665Z,10.23
2023-10-08T00:16:16.958Z,11.63
2023-10-08T00:18:51.973Z,11.05
2023-10-08T00:21:27.641Z,12.93
2023-10-08T00:23:59.504Z,13.93
2023-10-08T00:26:31.815Z,17.10
2023-10-08T00:29:02.115Z,9.48
2023-10-08T00:31:38.358Z,11.68
2023-10-08T00:34:12.674Z,8.65
2023-10-08T00:36:42.900Z,13.45
2023-10-08T00:39:14.922Z,19.85
2023-10-08T00:41:45.261Z,11.55
2023-10-08T00:44:15.070Z,17.05
2023-10-08T00:46:49.897Z,11.70
2023-10-08T00:49:25.657Z,14.27
2023-10-08T00:52:05.022Z,11.10
2023-10-08T00:54:35.765Z,14.93
2023-10-08T00:57:07.201Z,11.65
2023-10-08T00:59:44.366Z,11.23
2023-10-08T01:02:21.058Z,9.07
2023-10-08T01:04:51.291Z,1.50
2023-10-08T01:07:21.150Z,1.30
2023-10-08T01:09:52.059Z,0.80
2023-10-08T01:12:24.941Z,0.80
2023-10-08T01:14:55.087Z,0.80
2023-10-08T01:17:29.171Z,0.70
2023-10-08T01:20:18.507Z,0.95
2023-10-08T01:22:48.301Z,0.70
2023-10-08T01:25:23.754Z,0.70
2023-10-08T01:27:52.257Z,2.10
2023-10-08T01:30:21.273Z,0.68
2023-10-08T01:32:49.719Z,1.23
2023-10-08T01:35:24.658Z,0.70
2023-10-08T01:37:57.780Z,1.08
2023-10-08T01:40:26.055Z,0.70
2023-10-08T01:42:54.320Z,1.60
2023-10-08T01:45:25.837Z,0.65
2023-10-08T01:47:56.349Z,0.60
2023-10-08T01:50:26.213Z,0.60
2023-10-08T01:52:56.023Z,0.60
2023-10-08T01:55:24.360Z,0.60
2023-10-08T01:57:53.839Z,0.60
2023-10-08T02:00:23.837Z,2.88
2023-10-08T02:02:53.146Z,0.60
2023-10-08T02:05:22.315Z,0.70
2023-10-08T02:07:52.256Z,0.60
2023-10-08T02:10:23.522Z,0.60
2023-10-08T02:12:51.814Z,0.70
2023-10-08T02:15:20.366Z,0.60
2023-10-08T02:17:49.892Z,0.80
2023-10-08T02:20:18.199Z,0.88
2023-10-08T02:22:46.505Z,0.80
2023-10-08T02:25:14.998Z,0.90
2023-10-08T02:27:44.692Z,1.15
2023-10-08T02:30:13.911Z,1.20
2023-10-08T02:32:43.911Z,1.10
2023-10-08T02:35:14.288Z,1.35
2023-10-08T02:37:43.047Z,1.85
2023-10-08T02:40:20.378Z,1.58
2023-10-08T02:42:50.841Z,1.60
2023-10-08T02:45:19.546Z,0.98
2023-10-08T02:47:47.943Z,0.90
2023-10-08T02:50:18.556Z,0.77
2023-10-08T02:52:47.481Z,0.70
2023-10-08T02:55:26.975Z,0.80
2023-10-08T02:57:58.302Z,0.70
2023-10-08T03:00:31.124Z,1.95
2023-10-08T03:03:02.553Z,0.60
2023-10-08T03:05:37.501Z,0.60
2023-10-08T03:08:11.856Z,0.60
2023-10-08T03:10:41.486Z,0.60
2023-10-08T03:13:14.170Z,0.70
2023-10-08T03:15:48.064Z,0.60
2023-10-08T03:18:16.955Z,1.20
2023-10-08T03:20:45.447Z,3.78
2023-10-08T03:23:25.152Z,1.83
2023-10-08T03:26:01.501Z,3.40
2023-10-08T03:28:35.972Z,8.45
2023-10-08T03:31:18.877Z,9.60
2023-10-08T03:33:50.386Z,4.20
2023-10-08T03:36:23.732Z,8.10
2023-10-08T03:38:55.340Z,3.53
2023-10-08T03:41:30.155Z,3.00
2023-10-08T03:44:06.849Z,3.17
2023-10-08T03:46:40.680Z,6.05
2023-10-08T03:49:16.072Z,6.57
2023-10-08T03:51:44.504Z,5.00
2023-10-08T03:54:18.389Z,7.35
2023-10-08T03:56:48.194Z,7.03
2023-10-08T03:59:31.691Z,4.47
2023-10-08T04:02:11.105Z,5.47
2023-10-08T04:04:57.764Z,10.55
2023-10-08T04:07:29.966Z,4.80
2023-10-08T04:10:27.796Z,13.52
2023-10-08T04:12:56.494Z,4.90
2023-10-08T04:15:26.251Z,7.57
2023-10-08T04:17:54.827Z,4.65
2023-10-08T04:20:39.544Z,6.88
2023-10-08T04:23:14.929Z,2.20
2023-10-08T04:25:44.628Z,3.60
2023-10-08T04:28:18.543Z,4.35
2023-10-08T04:30:52.122Z,1.08
2023-10-08T04:33:21.212Z,1.15
2023-10-08T04:35:52.565Z,1.30
2023-10-08T04:38:23.999Z,5.38
2023-10-08T04:40:53.473Z,5.95
2023-10-08T04:43:26.389Z,2.83
2023-10-08T04:45:58.197Z,4.03
2023-10-08T04:48:30.989Z,2.10
2023-10-08T04:51:03.540Z,4.10
2023-10-08T04:53:37.749Z,2.15
2023-10-08T04:56:14.574Z,4.05
2023-10-08T04:58:47.688Z,4.07
2023-10-08T05:01:22.124Z,4.55
2023-10-08T05:04:08.655Z,3.20
2023-10-08T05:07:01.938Z,5.50
2023-10-08T05:09:48.718Z,4.93
2023-10-08T05:12:35.668Z,6.63
2023-10-08T05:15:21.557Z,5.32
2023-10-08T05:18:14.335Z,8.43
2023-10-08T05:21:00.390Z,8.45
2023-10-08T05:23:46.404Z,8.63
2023-10-08T05:26:32.172Z,8.70
2023-10-08T05:29:02.710Z,6.68
2023-10-08T05:31:48.409Z,4.72
2023-10-08T05:34:19.372Z,7.80
2023-10-08T05:37:12.706Z,2.75
2023-10-08T05:39:48.107Z,5.55
2023-10-08T05:42:18.073Z,9.15
2023-10-08T05:45:08.086Z,1.90
2023-10-08T05:47:52.743Z,3.85
2023-10-08T05:50:40.373Z,2.63
2023-10-08T05:53:20.834Z,4.25
2023-10-08T05:56:02.438Z,7.18
2023-10-08T05:58:46.926Z,2.85
2023-10-08T06:01:30.970Z,2.03
2023-10-08T06:04:13.065Z,5.22
2023-10-08T06:06:48.926Z,5.28
2023-10-08T06:09:23.404Z,11.43
2023-10-08T06:12:12.221Z,10.13
2023-10-08T06:15:08.507Z,7.53
2023-10-08T06:17:59.634Z,6.38
2023-10-08T06:20:28.863Z,3.67
2023-10-08T06:23:04.663Z,5.55
2023-10-08T06:25:33.130Z,7.55
2023-10-08T06:28:03.799Z,4.70
2023-10-08T06:30:36.055Z,5.32
2023-10-08T06:33:05.149Z,11.98
2023-10-08T06:35:34.475Z,8.13
2023-10-08T06:38:08.788Z,9.15
2023-10-08T06:40:46.207Z,11.60
2023-10-08T06:43:18.212Z,8.05
2023-10-08T06:45:47.890Z,4.60
2023-10-08T06:48:21.546Z,6.63
2023-10-08T06:50:51.410Z,6.15
2023-10-08T06:53:21.085Z,9.95
2023-10-08T06:55:56.218Z,9.25
2023-10-08T06:58:25.531Z,12.02
2023-10-08T07:00:56.364Z,16.50
2023-10-08T07:03:26.025Z,11.55
2023-10-08T07:06:01.270Z,4.72
2023-10-08T07:08:34.180Z,8.25
2023-10-08T07:11:07.865Z,14.38
2023-10-08T07:13:38.303Z,6.13
2023-10-08T07:16:07.257Z,9.30
2023-10-08T07:18:35.719Z,11.75
2023-10-08T07:21:05.305Z,12.75
2023-10-08T07:23:36.083Z,9.60
2023-10-08T07:26:12.949Z,11.82
2023-10-08T07:28:41.928Z,8.27
2023-10-08T07:31:16.814Z,11.10
2023-10-08T07:33:45.452Z,14.02
2023-10-08T07:36:19.452Z,12.40
2023-10-08T07:38:49.246Z,11.98
2023-10-08T07:41:17.519Z,10.60
2023-10-08T07:43:47.477Z,8.98
2023-10-08T07:46:16.533Z,13.20
2023-10-08T07:48:44.925Z,12.13
2023-10-08T07:51:13.197Z,14.38
2023-10-08T07:53:43.245Z,14.45
2023-10-08T07:56:13.193Z,10.88
2023-10-08T07:58:41.562Z,14.45
2023-10-08T08:01:10.876Z,8.10
2023-10-08T08:03:39.635Z,11.88
2023-10-08T08:06:08.615Z,12.13
2023-10-08T08:08:37.940Z,9.65
2023-10-08T08:11:08.356Z,8.57
2023-10-08T08:13:38.341Z,10.38
2023-10-08T08:16:18.951Z,7.32
2023-10-08T08:18:48.063Z,6.78
2023-10-08T08:21:17.258Z,10.30
2023-10-08T08:23:49.859Z,9.63
2023-10-08T08:26:40.686Z,9.20
2023-10-08T08:29:16.586Z,5.28
2023-10-08T08:31:47.611Z,6.82
2023-10-08T08:34:20.828Z,9.25
2023-10-08T08:36:50.245Z,12.35
2023-10-08T08:39:29.731Z,10.63
2023-10-08T08:42:02.739Z,8.60
2023-10-08T08:44:34.991Z,7.32
2023-10-08T08:47:08.318Z,7.38
2023-10-08T08:49:39.905Z,12.15
2023-10-08T08:52:08.180Z,11.77
2023-10-08T08:54:37.640Z,13.88
2023-10-08T08:57:07.759Z,11.40
2023-10-08T08:59:38.255Z,6.57
2023-10-08T09:02:09.116Z,12.15
2023-10-08T09:04:38.926Z,9.95
2023-10-08T09:07:10.375Z,8.07
2023-10-08T09:09:40.581Z,6.80
2023-10-08T09:12:12.346Z,4.75
2023-10-08T09:14:44.616Z,10.48
2023-10-08T09:17:16.335Z,11.38
2023-10-08T09:19:44.632Z,10.23
2023-10-08T09:22:13.699Z,5.75
2023-10-08T09:24:44.523Z,7.35
2023-10-08T09:27:15.384Z,8.85
2023-10-08T09:29:45.452Z,6.40
2023-10-08T09:32:15.588Z,10.70
2023-10-08T09:34:45.828Z,11.10
2023-10-08T09:37:14.449Z,8.33
2023-10-08T09:39:46.767Z,5.87
2023-10-08T09:42:17.991Z,5.23
2023-10-08T09:44:48.439Z,11.03
2023-10-08T09:47:26.655Z,3.10
2023-10-08T09:50:00.416Z,8.10
2023-10-08T09:52:35.732Z,5.40
2023-10-08T09:55:11.516Z,6.00
2023-10-08T09:57:40.336Z,4.67
2023-10-08T10:00:16.289Z,6.97
2023-10-08T10:02:45.313Z,5.93
2023-10-08T10:05:14.118Z,2.67
2023-10-08T10:07:45.070Z,3.07
2023-10-08T10:10:29.001Z,12.70
2023-10-08T10:13:04.296Z,3.10
2023-10-08T10:15:35.921Z,7.13
2023-10-08T10:18:15.306Z,7.60
2023-10-08T10:20:50.821Z,3.03
2023-10-08T10:23:41.932Z,4.40
2023-10-08T10:26:29.559Z,4.60
2023-10-08T10:29:20.579Z,1.50
2023-10-08T10:31:54.416Z,9.13
2023-10-08T10:34:25.438Z,7.10
2023-10-08T10:37:00.938Z,6.23
2023-10-08T10:39:31.431Z,2.03
2023-10-08T10:42:02.819Z,3.93
2023-10-08T10:44:39.890Z,1.27
2023-10-08T10:47:26.867Z,3.03
2023-10-08T10:50:11.205Z,2.53
2023-10-08T10:52:46.114Z,2.27
2023-10-08T10:55:38.307Z,1.97
2023-10-08T10:58:12.981Z,1.30
2023-10-08T11:00:58.122Z,3.90
2023-10-08T11:03:29.371Z,2.73
2023-10-08T11:06:07.123Z,3.23
2023-10-08T11:08:38.848Z,5.67
2023-10-08T11:11:11.015Z,8.30
2023-10-08T11:13:42.096Z,2.23
2023-10-08T11:16:14.688Z,8.50
2023-10-08T11:18:51.747Z,2.07
2023-10-08T11:21:25.158Z,3.73
2023-10-08T11:23:56.710Z,5.83
2023-10-08T11:26:34.399Z,1.97
2023-10-08T11:29:05.101Z,3.43
2023-10-08T11:31:35.591Z,4.47
2023-10-08T11:34:13.579Z,3.43
2023-10-08T11:36:56.857Z,3.10
2023-10-08T11:39:34.134Z,2.93
2023-10-08T11:42:17.856Z,2.80
2023-10-08T11:44:47.764Z,1.40
2023-10-08T11:47:22.333Z,7.00
2023-10-08T11:49:58.426Z,1.90
2023-10-08T11:52:29.764Z,2.40
2023-10-08T11:54:58.146Z,1.50
2023-10-08T11:57:27.027Z,3.20
2023-10-08T12:00:01.678Z,3.70
2023-10-08T12:02:30.807Z,7.90
2023-10-08T12:05:00.747Z,3.00
2023-10-08T12:07:29.404Z,4.80
2023-10-08T12:10:00.692Z,2.47
2023-10-08T12:12:29.160Z,2.20
2023-10-08T12:14:57.487Z,4.50
2023-10-08T12:17:39.144Z,1.80
2023-10-08T12:20:25.003Z,1.70
2023-10-08T12:22:53.827Z,4.30
2023-10-08T12:25:26.737Z,2.07
2023-10-08T12:27:55.057Z,3.47
2023-10-08T12:30:31.734Z,1.60
2023-10-08T12:33:01.390Z,4.10
2023-10-08T12:35:31.546Z,4.27
2023-10-08T12:37:59.870Z,3.30
2023-10-08T12:40:43.310Z,2.43
2023-10-08T12:43:12.130Z,4.80
2023-10-08T12:45:40.478Z,5.05
2023-10-08T12:48:09.759Z,4.13
2023-10-08T12:50:44.770Z,2.40
2023-10-08T12:53:13.570Z,2.27
2023-10-08T12:55:42.213Z,2.00
2023-10-08T12:58:11.684Z,2.78
2023-10-08T13:00:42.578Z,2.97
2023-10-08T13:03:16.544Z,2.47
2023-10-08T13:05:46.991Z,7.10
2023-10-08T13:08:15.994Z,3.15
2023-10-08T13:10:45.558Z,10.90
2023-10-08T13:13:14.722Z,3.83
2023-10-08T13:15:44.188Z,4.10
2023-10-08T13:18:12.529Z,4.60
2023-10-08T13:20:42.933Z,2.28
2023-10-08T13:23:12.678Z,4.10
2023-10-08T13:25:41.456Z,3.40
2023-10-08T13:28:12.747Z,3.25
2023-10-08T13:30:41.397Z,2.22
2023-10-08T13:33:10.934Z,3.25
2023-10-08T13:35:39.662Z,4.70
2023-10-08T13:38:11.670Z,3.30
2023-10-08T13:40:44.896Z,4.53
2023-10-08T13:43:14.184Z,3.78
2023-10-08T13:45:45.872Z,8.88
2023-10-08T13:48:15.551Z,1.45
2023-10-08T13:50:45.018Z,2.85
2023-10-08T13:53:14.482Z,3.50
2023-10-08T13:55:46.780Z,5.45
2023-10-08T13:58:15.236Z,1.75
2023-10-08T14:00:43.485Z,3.30
2023-10-08T14:03:13.161Z,5.88
2023-10-08T14:05:47.646Z,3.13
2023-10-08T14:08:16.940Z,6.75
2023-10-08T14:10:48.562Z,4.00
2023-10-08T14:13:20.667Z,6.50
2023-10-08T14:15:57.030Z,2.75
2023-10-08T14:18:29.705Z,2.88
2023-10-08T14:21:11.064Z,3.85
2023-10-08T14:23:40.935Z,2.20
2023-10-08T14:26:16.584Z,2.40
2023-10-08T14:28:52.203Z,3.13
2023-10-08T14:31:23.494Z,2.90
2023-10-08T14:34:20.182Z,4.05
2023-10-08T14:37:06.982Z,1.73
2023-10-08T14:39:52.944Z,2.45
2023-10-08T14:42:40.194Z,2.85
2023-10-08T14:45:12.427Z,4.03
2023-10-08T14:47:41.783Z,3.72
2023-10-08T14:50:17.316Z,1.80
2023-10-08T14:52:46.207Z,5.22
2023-10-08T14:55:17.906Z,4.97
2023-10-08T14:57:47.537Z,3.00
2023-10-08T15:00:16.213Z,2.08
2023-10-08T15:02:44.548Z,3.08
2023-10-08T15:05:15.341Z,8.15
2023-10-08T15:07:43.576Z,6.80
2023-10-08T15:10:14.278Z,4.65
2023-10-08T15:12:42.520Z,2.30
2023-10-08T15:15:14.980Z,3.65
2023-10-08T15:17:44.525Z,2.38
2023-10-08T15:20:15.696Z,2.40
2023-10-08T15:22:44.702Z,4.25
2023-10-08T15:25:13.166Z,5.03
2023-10-08T15:27:41.712Z,5.90
2023-10-08T15:30:13.752Z,2.92
2023-10-08T15:32:44.898Z,5.13
2023-10-08T15:35:15.751Z,5.13
2023-10-08T15:37:55.092Z,5.00
2023-10-08T15:40:24.319Z,2.85
2023-10-08T15:42:54.639Z,2.70
2023-10-08T15:45:25.854Z,12.07
2023-10-08T15:47:58.281Z,10.60
2023-10-08T15:50:27.323Z,3.67
2023-10-08T15:52:57.222Z,6.43
2023-10-08T15:55:26.980Z,4.35
2023-10-08T15:57:55.421Z,5.03
2023-10-08T16:00:25.297Z,5.18
2023-10-08T16:02:56.475Z,4.38
2023-10-08T16:05:24.856Z,5.75
2023-10-08T16:07:59.818Z,3.92
2023-10-08T16:10:28.902Z,6.72
2023-10-08T16:12:57.685Z,10.70
2023-10-08T16:15:27.410Z,10.48
2023-10-08T16:17:57.598Z,4.63
2023-10-08T16:20:26.797Z,7.13
2023-10-08T16:22:55.630Z,5.40
2023-10-08T16:25:28.019Z,4.88
2023-10-08T16:27:56.425Z,7.38
2023-10-08T16:30:33.828Z,4.07
2023-10-08T16:33:06.777Z,12.30
2023-10-08T16:35:37.213Z,13.57
2023-10-08T16:38:06.552Z,8.35
2023-10-08T16:40:35.290Z,7.90
2023-10-08T16:43:06.765Z,4.28
2023-10-08T16:45:36.758Z,3.10
2023-10-08T16:48:08.954Z,14.50
2023-10-08T16:50:37.812Z,48.85
2023-10-08T16:53:06.413Z,63.90
2023-10-08T16:55:34.736Z,39.25
2023-10-08T16:58:05.808Z,14.60
2023-10-08T17:00:35.986Z,13.55
2023-10-08T17:03:06.219Z,11.98
2023-10-08T17:05:34.864Z,13.82
2023-10-08T17:08:03.510Z,12.95
2023-10-08T17:10:31.756Z,26.23
2023-10-08T17:13:00.804Z,24.80
2023-10-08T17:15:32.003Z,26.27
2023-10-08T17:18:00.623Z,26.52
2023-10-08T17:20:32.028Z,29.13
2023-10-08T17:23:00.339Z,27.15
2023-10-08T17:25:28.677Z,29.08
2023-10-08T17:27:56.982Z,24.98
2023-10-08T17:30:25.358Z,24.73
2023-10-08T17:32:54.038Z,28.60
2023-10-08T17:35:33.906Z,23.60
2023-10-08T17:38:12.095Z,32.10
2023-10-08T17:40:46.266Z,30.60
2023-10-08T17:43:17.440Z,24.10
2023-10-08T17:45:47.276Z,25.20
2023-10-08T17:48:18.562Z,13.32
2023-10-08T17:50:51.677Z,11.88
2023-10-08T17:53:21.567Z,9.10
2023-10-08T17:55:49.891Z,14.05
2023-10-08T17:58:24.098Z,8.15
2023-10-08T18:00:52.387Z,10.70
2023-10-08T18:03:30.995Z,10.40
2023-10-08T18:06:00.861Z,7.88
2023-10-08T18:08:33.213Z,9.45
2023-10-08T18:11:02.811Z,12.10
2023-10-08T18:13:31.804Z,12.32
2023-10-08T18:16:00.291Z,9.15
2023-10-08T18:18:30.076Z,10.90
2023-10-08T18:20:59.144Z,18.17
2023-10-08T18:23:31.994Z,21.35
2023-10-08T18:26:02.862Z,19.73
2023-10-08T18:28:35.136Z,17.25
2023-10-08T18:31:07.657Z,20.92
2023-10-08T18:33:41.047Z,29.88
2023-10-08T18:36:13.781Z,14.85
2023-10-08T18:38:44.013Z,15.00
2023-10-08T18:41:13.348Z,12.27
2023-10-08T18:43:50.776Z,12.60
2023-10-08T18:46:19.147Z,9.52
2023-10-08T18:48:53.466Z,15.55
2023-10-08T18:51:25.228Z,10.05
2023-10-08T18:53:56.976Z,12.02
2023-10-08T18:56:25.322Z,11.73
2023-10-08T18:58:53.629Z,14.57
2023-10-08T19:01:27.202Z,7.63
2023-10-08T19:03:58.847Z,7.15
2023-10-08T19:06:28.545Z,6.93
2023-10-08T19:08:58.968Z,5.63
2023-10-08T19:11:30.456Z,7.28
2023-10-08T19:13:58.891Z,7.95
2023-10-08T19:16:30.206Z,6.20
2023-10-08T19:18:59.866Z,7.45
2023-10-08T19:21:31.267Z,8.40
2023-10-08T19:24:04.569Z,5.82
2023-10-08T19:26:34.192Z,8.18
2023-10-08T19:29:02.897Z,10.00
2023-10-08T19:31:31.388Z,11.45
2023-10-08T19:34:02.875Z,11.88
2023-10-08T19:36:36.248Z,13.55
2023-10-08T19:39:08.303Z,10.25
2023-10-08T19:41:36.738Z,8.65
2023-10-08T19:44:05.363Z,9.30
2023-10-08T19:46:33.701Z,11.13
2023-10-08T19:49:02.104Z,10.98
2023-10-08T19:51:30.432Z,8.00
2023-10-08T19:54:00.465Z,14.75
2023-10-08T19:56:30.343Z,10.73
2023-10-08T19:58:58.631Z,15.85
2023-10-08T20:01:26.975Z,8.90
2023-10-08T20:03:55.743Z,11.00
2023-10-08T20:06:24.914Z,11.02
2023-10-08T20:08:56.485Z,8.98
2023-10-08T20:11:25.192Z,10.48
2023-10-08T20:13:55.923Z,9.57
2023-10-08T20:16:26.192Z,9.82
2023-10-08T20:18:54.546Z,9.68
2023-10-08T20:21:22.897Z,10.32
2023-10-08T20:23:51.939Z,12.73
2023-10-08T20:26:24.527Z,9.90
2023-10-08T20:28:56.060Z,8.25
2023-10-08T20:31:30.156Z,8.05
2023-10-08T20:34:01.203Z,16.15
2023-10-08T20:36:29.633Z,9.75
2023-10-08T20:38:59.270Z,10.80
2023-10-08T20:41:28.554Z,13.88
2023-10-08T20:43:58.301Z,9.52
2023-10-08T20:46:26.936Z,8.25
2023-10-08T20:48:55.320Z,12.93
2023-10-08T20:51:25.049Z,10.15
2023-10-08T20:53:57.593Z,13.23
2023-10-08T20:56:26.338Z,8.52
2023-10-08T20:58:54.687Z,13.43
2023-10-08T21:01:24.409Z,8.38
2023-10-08T21:03:52.746Z,20.55
2023-10-08T21:06:22.194Z,12.52
2023-10-08T21:08:51.283Z,7.80
2023-10-08T21:11:20.275Z,10.18
2023-10-08T21:13:49.059Z,8.43
2023-10-08T21:16:17.694Z,7.85
2023-10-08T21:18:50.297Z,11.80
2023-10-08T21:21:23.956Z,13.93
2023-10-08T21:23:52.563Z,9.20
2023-10-08T21:26:21.185Z,8.88
2023-10-08T21:28:49.840Z,15.75
2023-10-08T21:31:18.172Z,11.02
2023-10-08T21:33:51.835Z,9.75
2023-10-08T21:36:20.249Z,12.15
2023-10-08T21:38:48.606Z,14.40
2023-10-08T21:41:16.897Z,16.38
2023-10-08T21:43:45.148Z,11.45
2023-10-08T21:46:13.648Z,10.90
2023-10-08T21:48:42.302Z,13.93
2023-10-08T21:51:14.738Z,10.88
2023-10-08T21:53:44.050Z,9.27
2023-10-08T21:56:12.704Z,12.02
2023-10-08T21:58:41.072Z,12.85
2023-10-08T22:01:19.225Z,15.95
2023-10-08T22:03:48.361Z,11.02
2023-10-08T22:06:18.548Z,10.52
2023-10-08T22:08:50.068Z,12.82
2023-10-08T22:11:19.363Z,9.18
2023-10-08T22:13:47.649Z,14.13
2023-10-08T22:16:19.924Z,14.43
2023-10-08T22:18:52.980Z,13.00
2023-10-08T22:21:25.786Z,12.77
2023-10-08T22:23:54.800Z,11.63
2023-10-08T22:26:25.310Z,14.23
2023-10-08T22:28:58.231Z,13.65
2023-10-08T22:31:26.861Z,12.55
2023-10-08T22:34:05.527Z,12.07
2023-10-08T22:36:45.897Z,12.85
2023-10-08T22:39:14.434Z,15.32
2023-10-08T22:41:55.731Z,11.75
2023-10-08T22:44:24.879Z,15.23
2023-10-08T22:47:10.967Z,13.25
2023-10-08T22:49:39.857Z,19.15
2023-10-08T22:52:10.566Z,13.45
2023-10-08T22:54:39.510Z,10.25
2023-10-08T22:57:07.937Z,10.18
2023-10-08T22:59:36.888Z,10.50
2023-10-08T23:02:11.813Z,11.70
2023-10-08T23:04:41.977Z,15.38
2023-10-08T23:07:11.900Z,13.77
2023-10-08T23:09:40.826Z,9.35
2023-10-08T23:12:10.885Z,13.20
2023-10-08T23:14:39.650Z,15.02
2023-10-08T23:17:08.886Z,11.00
2023-10-08T23:19:39.659Z,13.02
2023-10-08T23:22:08.076Z,8.85
2023-10-08T23:24:38.509Z,9.70
2023-10-08T23:27:09.896Z,17.10
2023-10-08T23:29:38.343Z,10.60
2023-10-08T23:32:09.078Z,11.18
2023-10-08T23:34:38.857Z,13.25
2023-10-08T23:37:22.844Z,7.55
2023-10-08T23:39:55.878Z,9.95
2023-10-08T23:42:33.415Z,8.15
2023-10-08T23:45:15.105Z,9.23
2023-10-08T23:47:47.775Z,8.90
2023-10-08T23:50:17.146Z,8.63
2023-10-08T23:52:48.873Z,8.52
2023-10-08T23:55:24.662Z,12.50
2023-10-08T23:58:07.834Z,9.27
